Time;durP1;ratioP1;P1;durP2;ratioP2;P2;SDS_P1;SDS_P2;PMS_P1;PMS_P2;Temp;Humidity;BMP_temperature;BMP_pressure;BME280_temperature;BME280_humidity;BME280_pressure;Samples;Min_cycle;Max_cycle;Signal;HPM_P1;HPM_P2
2021/03/27 00:02:02;;;;;;;9.10;8.20;;;5.50;61.30;;;;;;5184995;28;20033;-66
2021/03/27 00:05:00;;;;;;;9.13;8.23;;;5.60;61.70;;;;;;5186919;28;20052;-65
2021/03/27 00:08:00;;;;;;;9.05;7.97;;;5.60;61.70;;;;;;5189626;28;20095;-65
2021/03/27 00:10:36;;;;;;;8.90;7.90;;;5.60;62.50;;;;;;5180773;28;20038;-65
2021/03/27 00:13:22;;;;;;;9.32;8.45;;;5.60;62.30;;;;;;5185469;28;20097;-66
2021/03/27 00:16:14;;;;;;;10.48;8.43;;;5.60;62.50;;;;;;5184195;28;20088;-65
2021/03/27 00:19:04;;;;;;;8.98;8.07;;;5.60;61.70;;;;;;5175033;28;20493;-65
2021/03/27 00:21:58;;;;;;;8.77;7.88;;;5.60;59.30;;;;;;5184396;28;20188;-66
2021/03/27 00:24:52;;;;;;;9.18;8.23;;;5.70;59.40;;;;;;5186908;28;20046;-66
2021/03/27 00:27:28;;;;;;;9.57;8.68;;;5.70;61.10;;;;;;5187960;28;20045;-65
2021/03/27 00:30:09;;;;;;;10.68;8.50;;;5.60;61.00;;;;;;5189792;28;20037;-65
2021/03/27 00:32:53;;;;;;;9.45;8.55;;;5.50;61.40;;;;;;5188209;28;20092;-65
2021/03/27 00:35:35;;;;;;;9.88;8.88;;;5.50;62.60;;;;;;5188477;28;20038;-64
2021/03/27 00:38:12;;;;;;;10.05;9.00;;;5.50;61.60;;;;;;5188237;28;20408;-66
2021/03/27 00:40:47;;;;;;;11.40;8.85;;;5.50;61.80;;;;;;5202250;28;20133;-66
2021/03/27 00:43:23;;;;;;;10.40;8.80;;;5.60;61.80;;;;;;5187392;28;20064;-65
2021/03/27 00:46:00;;;;;;;9.80;8.80;;;5.70;62.30;;;;;;5190021;28;20042;-66
2021/03/27 00:48:36;;;;;;;9.77;8.88;;;5.70;62.00;;;;;;5188053;28;20042;-66
2021/03/27 00:51:20;;;;;;;10.82;8.63;;;5.60;61.70;;;;;;5176296;28;20082;-66
2021/03/27 00:54:22;;;;;;;9.43;8.07;;;5.60;61.90;;;;;;5191178;28;20049;-66
2021/03/27 00:57:22;;;;;;;9.23;8.27;;;5.60;62.00;;;;;;5148552;28;20056;-66
2021/03/27 01:00:04;;;;;;;9.63;8.52;;;5.60;61.00;;;;;;5167253;28;20034;-65
2021/03/27 01:03:02;;;;;;;9.82;8.90;;;5.50;61.00;;;;;;5168861;28;20153;-65
2021/03/27 01:05:54;;;;;;;10.60;9.60;;;5.50;60.90;;;;;;5166496;28;20053;-66
2021/03/27 01:08:51;;;;;;;9.88;8.85;;;5.50;60.70;;;;;;5174926;28;20058;-66
2021/03/27 01:11:48;;;;;;;9.88;8.88;;;5.50;60.80;;;;;;5181576;28;20496;-66
2021/03/27 01:14:30;;;;;;;10.32;9.43;;;5.50;60.90;;;;;;5203676;28;20133;-66
2021/03/27 01:17:04;;;;;;;10.30;9.10;;;5.50;61.10;;;;;;5187329;28;20131;-66
2021/03/27 01:19:42;;;;;;;10.40;9.40;;;5.60;61.30;;;;;;5204466;28;20072;-68
2021/03/27 01:22:16;;;;;;;11.75;10.55;;;5.70;62.90;;;;;;5189198;28;20439;-66
2021/03/27 01:24:48;;;;;;;14.50;11.07;;;5.70;62.30;;;;;;5190543;28;20060;-66
2021/03/27 01:27:27;;;;;;;10.68;9.57;;;5.80;62.10;;;;;;5185833;28;20042;-66
2021/03/27 01:30:30;;;;;;;12.38;11.02;;;5.80;62.00;;;;;;5188000;28;20053;-68
2021/03/27 01:33:16;;;;;;;10.75;9.75;;;5.80;62.00;;;;;;5187240;28;20068;-67
2021/03/27 01:35:57;;;;;;;10.65;9.65;;;5.80;61.40;;;;;;5183395;28;20053;-66
2021/03/27 01:38:38;;;;;;;10.50;9.05;;;5.80;61.70;;;;;;5190575;28;20091;-67
2021/03/27 01:41:24;;;;;;;10.32;9.30;;;5.80;62.60;;;;;;5189052;28;20049;-66
2021/03/27 01:44:25;;;;;;;10.68;9.20;;;5.70;63.00;;;;;;5188667;28;20591;-67
2021/03/27 01:47:30;;;;;;;10.07;9.10;;;5.60;63.10;;;;;;5195518;28;20187;-66
2021/03/27 01:50:24;;;;;;;10.63;9.63;;;5.50;63.20;;;;;;5188481;28;20546;-67
2021/03/27 01:53:19;;;;;;;11.13;9.93;;;5.50;62.90;;;;;;5191170;28;20458;-67
2021/03/27 01:56:02;;;;;;;12.95;9.40;;;5.40;64.60;;;;;;5202839;28;20069;-67
2021/03/27 01:58:40;;;;;;;9.93;8.93;;;5.30;63.80;;;;;;5186932;28;20061;-67
2021/03/27 02:01:25;;;;;;;9.73;8.82;;;5.30;63.80;;;;;;5187112;28;20100;-66
2021/03/27 02:04:13;;;;;;;10.10;9.20;;;5.30;63.30;;;;;;5189227;28;20120;-66
2021/03/27 02:06:54;;;;;;;10.57;8.60;;;5.30;64.10;;;;;;5186355;28;20042;-66
2021/03/27 02:09:54;;;;;;;9.68;8.48;;;5.20;64.00;;;;;;5185276;28;20053;-67
2021/03/27 02:12:47;;;;;;;9.90;8.90;;;5.00;64.50;;;;;;5184551;28;20058;-66
2021/03/27 02:15:40;;;;;;;9.93;9.02;;;5.00;64.80;;;;;;5186213;28;20049;-67
2021/03/27 02:18:35;;;;;;;9.30;8.40;;;4.90;64.70;;;;;;5189006;28;20116;-66
2021/03/27 02:21:25;;;;;;;10.48;9.40;;;4.90;65.10;;;;;;5186904;28;20085;-67
2021/03/27 02:24:44;;;;;;;10.85;9.45;;;4.90;65.00;;;;;;5188921;28;20754;-66
2021/03/27 02:27:31;;;;;;;9.95;8.73;;;4.90;66.40;;;;;;5121519;28;20051;-66
2021/03/27 02:30:09;;;;;;;9.80;8.80;;;4.90;65.90;;;;;;5167658;28;20121;-67
2021/03/27 02:33:01;;;;;;;9.63;8.73;;;4.80;66.00;;;;;;5166846;28;20046;-67
2021/03/27 02:35:51;;;;;;;9.48;8.48;;;4.80;65.60;;;;;;5198391;28;20042;-67
2021/03/27 02:38:56;;;;;;;9.63;8.70;;;4.80;65.00;;;;;;5166625;28;20042;-66
2021/03/27 02:41:41;;;;;;;9.70;8.73;;;4.80;65.80;;;;;;5163621;28;20049;-66
2021/03/27 02:44:27;;;;;;;9.88;8.65;;;4.90;65.20;;;;;;5163365;28;20133;-66
2021/03/27 02:47:24;;;;;;;10.15;9.13;;;5.00;64.90;;;;;;5181481;28;20092;-66
2021/03/27 02:50:37;;;;;;;9.60;8.70;;;4.90;65.10;;;;;;5186796;28;20049;-67
2021/03/27 02:53:13;;;;;;;9.35;8.25;;;5.00;65.90;;;;;;5163548;28;20054;-67
2021/03/27 02:55:58;;;;;;;11.48;8.98;;;4.90;66.40;;;;;;5187830;28;20099;-65
2021/03/27 02:58:49;;;;;;;10.20;9.30;;;4.90;66.00;;;;;;5187350;28;20045;-66
2021/03/27 03:01:31;;;;;;;9.20;8.38;;;4.90;65.60;;;;;;5187560;28;20073;-66
2021/03/27 03:04:12;;;;;;;10.15;8.73;;;4.90;65.80;;;;;;5185756;28;20816;-66
2021/03/27 03:06:55;;;;;;;9.15;8.25;;;4.90;65.50;;;;;;5184313;28;20053;-66
2021/03/27 03:09:42;;;;;;;10.52;9.27;;;4.80;66.50;;;;;;5184757;28;20535;-66
2021/03/27 03:12:34;;;;;;;10.98;9.85;;;4.80;66.40;;;;;;5184575;28;20619;-66
2021/03/27 03:15:25;;;;;;;9.65;8.75;;;4.80;66.30;;;;;;5184597;28;20054;-66
2021/03/27 03:18:16;;;;;;;;;;;4.90;66.30;;;;;;5186797;28;20124;-68
2021/03/27 03:20:56;;;;;;;9.40;8.50;;;4.90;66.30;;;;;;5181844;28;20645;-66
2021/03/27 03:23:40;;;;;;;9.85;8.85;;;5.00;65.50;;;;;;5201324;28;20061;-66
2021/03/27 03:26:36;;;;;;;9.73;8.80;;;5.00;64.80;;;;;;5185153;28;20064;-66
2021/03/27 03:29:46;;;;;;;10.25;9.05;;;5.00;64.80;;;;;;5184870;28;20515;-66
2021/03/27 03:32:42;;;;;;;9.93;8.93;;;5.10;64.70;;;;;;5181601;28;20133;-66
2021/03/27 03:35:52;;;;;;;9.82;8.93;;;5.10;64.60;;;;;;5187148;28;20060;-67
2021/03/27 03:38:30;;;;;;;10.00;8.98;;;5.20;64.30;;;;;;5186218;28;20508;-66
2021/03/27 03:41:14;;;;;;;9.77;8.77;;;5.20;64.50;;;;;;5181062;28;20144;-66
2021/03/27 03:44:17;;;;;;;9.88;8.82;;;5.20;65.20;;;;;;5186015;28;20147;-66
2021/03/27 03:46:54;;;;;;;9.77;8.82;;;5.10;65.40;;;;;;5157767;28;20085;-65
2021/03/27 03:50:16;;;;;;;10.55;9.48;;;5.10;66.50;;;;;;5162654;28;20045;-66
2021/03/27 03:53:16;;;;;;;10.05;8.25;;;5.10;65.70;;;;;;5153118;28;20040;-66
2021/03/27 03:56:09;;;;;;;9.70;8.70;;;5.00;66.20;;;;;;5177840;28;20114;-66
2021/03/27 03:58:55;;;;;;;10.32;9.32;;;5.00;66.90;;;;;;5183127;28;20125;-66
2021/03/27 04:01:41;;;;;;;10.27;9.23;;;4.90;66.40;;;;;;5187697;28;20096;-66
2021/03/27 04:04:19;;;;;;;9.70;8.75;;;4.90;67.10;;;;;;5186522;28;20558;-66
2021/03/27 04:07:06;;;;;;;9.77;8.88;;;4.90;67.10;;;;;;5184936;28;20416;-66
2021/03/27 04:09:58;;;;;;;10.10;9.07;;;4.90;66.90;;;;;;5187190;28;20099;-66
2021/03/27 04:12:51;;;;;;;11.57;9.70;;;4.90;67.00;;;;;;5191596;28;20084;-66
2021/03/27 04:15:44;;;;;;;11.80;9.77;;;4.90;68.30;;;;;;5185231;28;20543;-66
2021/03/27 04:18:39;;;;;;;10.00;9.07;;;4.90;67.70;;;;;;5185313;28;20042;-66
2021/03/27 04:21:30;;;;;;;9.55;8.65;;;4.90;67.90;;;;;;5183126;28;20046;-66
2021/03/27 04:24:19;;;;;;;10.27;9.27;;;5.00;67.90;;;;;;5182634;28;20053;-67
2021/03/27 04:27:05;;;;;;;9.90;8.90;;;5.00;67.90;;;;;;5182929;28;20862;-67
2021/03/27 04:29:46;;;;;;;10.73;9.60;;;5.00;68.40;;;;;;5184243;28;20177;-65
2021/03/27 04:32:41;;;;;;;11.00;9.68;;;4.90;68.50;;;;;;5184701;28;20053;-67
2021/03/27 04:35:24;;;;;;;11.00;9.75;;;4.90;68.90;;;;;;5184900;28;20814;-68
2021/03/27 04:38:08;;;;;;;10.00;9.00;;;4.90;69.10;;;;;;5183869;28;20053;-66
2021/03/27 04:40:48;;;;;;;10.10;9.10;;;5.00;68.70;;;;;;5185415;28;20050;-67
2021/03/27 04:43:29;;;;;;;;;;;5.10;69.20;;;;;;5186690;28;20054;-66
2021/03/27 04:46:11;;;;;;;10.43;9.43;;;5.10;68.00;;;;;;5184455;28;20016;-66
2021/03/27 04:48:57;;;;;;;10.88;9.70;;;5.10;67.70;;;;;;5184934;28;20060;-66
2021/03/27 04:51:38;;;;;;;10.02;9.02;;;5.10;67.30;;;;;;5182901;28;20144;-66
2021/03/27 04:54:32;;;;;;;10.98;9.88;;;5.10;67.60;;;;;;5181642;28;20574;-66
2021/03/27 04:57:12;;;;;;;10.40;9.40;;;5.10;67.40;;;;;;5182372;28;20128;-66
2021/03/27 04:59:53;;;;;;;10.90;9.80;;;5.10;67.50;;;;;;5182138;28;20053;-67
2021/03/27 05:02:54;;;;;;;11.20;9.52;;;5.10;68.10;;;;;;5184923;28;20625;-67
2021/03/27 05:05:31;;;;;;;;;;;5.10;68.70;;;;;;5192532;28;20054;-65
2021/03/27 05:08:10;;;;;;;12.05;9.88;;;5.10;67.80;;;;;;5188577;28;19927;-66
2021/03/27 05:11:16;;;;;;;10.40;9.25;;;5.10;69.20;;;;;;5184732;28;20034;-66
2021/03/27 05:14:27;;;;;;;11.07;9.70;;;5.10;69.50;;;;;;5187426;28;20077;-66
2021/03/27 05:17:12;;;;;;;10.93;9.93;;;5.20;70.50;;;;;;5185236;28;20136;-66
2021/03/27 05:19:45;;;;;;;10.98;9.85;;;5.10;71.00;;;;;;5188830;28;20125;-66
2021/03/27 05:22:55;;;;;;;11.05;9.80;;;5.20;71.50;;;;;;5185161;28;20072;-68
2021/03/27 05:25:44;;;;;;;11.30;10.20;;;5.30;70.90;;;;;;5188223;28;20066;-66
2021/03/27 05:28:48;;;;;;;11.23;10.13;;;5.20;72.60;;;;;;5189708;28;20045;-66
2021/03/27 05:31:31;;;;;;;11.48;10.27;;;5.20;73.10;;;;;;5175255;28;20041;-66
2021/03/27 05:34:33;;;;;;;11.90;10.70;;;5.20;74.00;;;;;;5187664;28;20042;-66
2021/03/27 05:37:24;;;;;;;10.82;9.80;;;5.20;73.10;;;;;;5189879;28;20120;-66
2021/03/27 05:40:17;;;;;;;11.20;10.00;;;5.20;74.10;;;;;;5185905;28;20061;-66
2021/03/27 05:43:11;;;;;;;12.05;10.85;;;5.20;74.20;;;;;;5218572;28;20136;-66
2021/03/27 05:46:16;;;;;;;13.23;11.85;;;5.20;75.20;;;;;;5177599;28;20169;-66
2021/03/27 05:49:24;;;;;;;11.80;10.60;;;5.20;75.60;;;;;;5189242;28;20447;-66
2021/03/27 05:52:17;;;;;;;10.68;9.68;;;5.20;76.10;;;;;;5193430;28;20042;-66
2021/03/27 05:55:05;;;;;;;11.43;10.43;;;5.20;75.20;;;;;;5188981;28;20594;-66
2021/03/27 05:58:08;;;;;;;10.90;9.80;;;5.30;75.60;;;;;;5185940;28;20049;-67
2021/03/27 06:00:55;;;;;;;10.93;9.82;;;5.30;76.10;;;;;;5187623;28;20041;-66
2021/03/27 06:03:48;;;;;;;10.80;9.80;;;5.40;76.60;;;;;;5189108;28;20108;-66
2021/03/27 06:06:22;;;;;;;9.82;8.82;;;5.30;77.70;;;;;;5184156;28;20053;-67
2021/03/27 06:09:12;;;;;;;10.65;9.68;;;5.30;77.80;;;;;;5189154;28;20050;-66
2021/03/27 06:11:43;;;;;;;9.63;8.73;;;5.40;78.40;;;;;;5187379;28;20500;-66
2021/03/27 06:14:32;;;;;;;10.10;9.20;;;5.40;78.30;;;;;;5189352;28;20087;-66
2021/03/27 06:17:38;;;;;;;9.15;8.25;;;5.50;77.60;;;;;;5188382;28;20507;-66
2021/03/27 06:20:49;;;;;;;9.48;8.63;;;5.60;77.40;;;;;;5185339;28;20037;-65
2021/03/27 06:23:43;;;;;;;9.30;8.40;;;5.60;79.00;;;;;;5186186;28;20038;-66
2021/03/27 06:26:33;;;;;;;9.40;8.50;;;5.60;78.70;;;;;;5186195;28;20087;-66
2021/03/27 06:29:37;;;;;;;9.10;8.30;;;5.70;78.30;;;;;;5189149;28;20038;-66
2021/03/27 06:32:43;;;;;;;9.57;8.68;;;5.70;77.80;;;;;;5174377;28;20153;-66
2021/03/27 06:35:42;;;;;;;8.98;8.18;;;5.70;80.40;;;;;;5123153;28;20102;-66
2021/03/27 06:38:32;;;;;;;9.50;8.60;;;5.70;80.00;;;;;;5191421;28;20057;-66
2021/03/27 06:41:24;;;;;;;18.55;14.23;;;5.70;78.90;;;;;;5186505;28;20068;-65
2021/03/27 06:44:12;;;;;;;10.40;9.40;;;5.80;79.60;;;;;;5188748;28;20137;-64
2021/03/27 06:46:59;;;;;;;8.52;7.72;;;5.80;79.00;;;;;;5185888;28;20045;-64
2021/03/27 06:49:58;;;;;;;8.00;7.20;;;5.80;80.20;;;;;;5186287;28;20044;-65
2021/03/27 06:52:37;;;;;;;8.05;7.35;;;5.80;79.80;;;;;;5185214;28;20152;-66
2021/03/27 06:55:47;;;;;;;8.60;7.90;;;5.90;80.80;;;;;;5188605;28;20123;-65
2021/03/27 06:58:22;;;;;;;8.02;7.32;;;5.90;79.60;;;;;;5187062;28;20053;-65
2021/03/27 07:01:15;;;;;;;8.05;7.35;;;5.90;80.90;;;;;;5183158;28;20049;-65
2021/03/27 07:04:05;;;;;;;8.18;7.18;;;5.90;80.60;;;;;;5184686;28;20045;-65
2021/03/27 07:07:04;;;;;;;7.90;7.20;;;6.00;80.20;;;;;;5186116;28;20049;-64
2021/03/27 07:10:12;;;;;;;7.60;6.90;;;6.00;80.70;;;;;;5184616;28;20172;-65
2021/03/27 07:13:11;;;;;;;8.02;7.32;;;6.00;81.90;;;;;;5184764;28;20095;-65
2021/03/27 07:16:00;;;;;;;7.65;7.05;;;6.00;80.30;;;;;;5185383;28;20069;-65
2021/03/27 07:18:47;;;;;;;7.53;6.93;;;6.00;78.60;;;;;;5183262;28;20046;-64
2021/03/27 07:21:38;;;;;;;7.30;6.70;;;6.10;77.40;;;;;;5183044;28;20861;-65
2021/03/27 07:24:23;;;;;;;7.70;7.00;;;6.20;76.50;;;;;;5184919;28;20072;-65
2021/03/27 07:27:15;;;;;;;7.20;6.55;;;6.00;71.50;;;;;;5181758;28;20063;-66
2021/03/27 07:29:50;;;;;;;7.05;6.45;;;5.90;74.10;;;;;;5185895;28;20124;-64
2021/03/27 07:32:50;;;;;;;7.13;6.53;;;5.80;72.00;;;;;;5185865;28;20064;-64
2021/03/27 07:35:58;;;;;;;7.07;6.40;;;5.70;70.00;;;;;;5181724;28;20042;-65
2021/03/27 07:38:44;;;;;;;9.05;8.15;;;5.30;71.70;;;;;;5190884;28;20065;-65
2021/03/27 07:41:44;;;;;;;7.70;7.00;;;5.30;71.50;;;;;;5186121;28;20136;-65
2021/03/27 07:44:24;;;;;;;8.13;7.35;;;5.40;72.00;;;;;;5191352;28;20352;-65
2021/03/27 07:47:05;;;;;;;;;;;5.40;71.50;;;;;;5183825;28;20053;-65
2021/03/27 07:50:01;;;;;;;;;;;5.40;71.80;;;;;;5186284;28;19999;-65
2021/03/27 07:52:45;;;;;;;7.88;7.18;;;5.40;71.20;;;;;;5182861;28;20435;-65
2021/03/27 07:55:36;;;;;;;7.47;6.50;;;5.50;71.00;;;;;;5185065;28;20045;-65
2021/03/27 07:58:11;;;;;;;9.57;8.63;;;5.50;70.00;;;;;;5184356;28;20076;-64
2021/03/27 08:01:02;;;;;;;7.18;6.40;;;5.40;71.10;;;;;;5184795;28;20046;-64
2021/03/27 08:03:51;;;;;;;7.63;6.88;;;5.30;70.10;;;;;;5183314;28;20129;-65
2021/03/27 08:06:39;;;;;;;14.82;11.80;;;5.30;70.00;;;;;;5182671;28;20046;-65
2021/03/27 08:09:48;;;;;;;11.48;7.93;;;5.30;70.20;;;;;;5182948;28;20095;-65
2021/03/27 08:12:43;;;;;;;7.13;6.50;;;5.30;71.30;;;;;;5184355;28;20038;-64
2021/03/27 08:15:26;;;;;;;16.63;11.93;;;5.10;71.80;;;;;;5185292;28;20131;-66
2021/03/27 08:18:18;;;;;;;8.35;7.55;;;5.10;71.90;;;;;;5183113;28;20076;-65
2021/03/27 08:20:59;;;;;;;7.45;6.80;;;5.20;71.10;;;;;;5167870;28;20052;-65
2021/03/27 08:23:58;;;;;;;7.00;6.35;;;5.20;71.50;;;;;;5182482;28;20522;-66
2021/03/27 08:26:42;;;;;;;7.78;6.95;;;5.30;71.90;;;;;;5184088;28;20140;-65
2021/03/27 08:29:42;;;;;;;7.22;6.57;;;5.40;70.70;;;;;;5183911;28;20119;-65
2021/03/27 08:32:49;;;;;;;6.85;6.10;;;5.30;66.10;;;;;;5184891;28;20388;-66
2021/03/27 08:36:04;;;;;;;7.47;6.88;;;5.30;68.80;;;;;;5183159;28;20100;-65
2021/03/27 08:38:56;;;;;;;7.00;6.40;;;5.40;70.50;;;;;;5133008;28;20509;-65
2021/03/27 08:41:50;;;;;;;6.93;6.22;;;5.50;67.70;;;;;;5214657;28;20050;-65
2021/03/27 08:44:31;;;;;;;7.00;6.20;;;5.40;69.30;;;;;;5183254;28;20049;-66
2021/03/27 08:47:11;;;;;;;;;;;5.30;69.80;;;;;;5189800;28;20109;-65
2021/03/27 08:49:57;;;;;;;7.20;6.50;;;5.20;69.10;;;;;;5190987;28;20004;-65
2021/03/27 08:52:47;;;;;;;7.30;6.70;;;5.20;70.00;;;;;;5190544;28;20088;-65
2021/03/27 08:55:57;;;;;;;7.70;7.00;;;5.20;69.40;;;;;;5189702;28;20033;-65
2021/03/27 08:58:59;;;;;;;6.82;6.22;;;5.20;69.70;;;;;;5189699;28;20046;-65
2021/03/27 09:02:08;;;;;;;6.93;6.20;;;5.20;68.60;;;;;;5190549;28;20103;-65
2021/03/27 09:04:58;;;;;;;6.80;6.20;;;5.20;71.00;;;;;;5205515;28;20096;-66
2021/03/27 09:07:57;;;;;;;6.27;5.67;;;5.20;72.30;;;;;;5191100;28;20052;-65
2021/03/27 09:11:02;;;;;;;6.32;5.70;;;5.20;70.70;;;;;;5189525;28;20316;-65
2021/03/27 09:13:58;;;;;;;7.00;6.40;;;5.30;70.80;;;;;;5189238;28;20104;-66
2021/03/27 09:16:51;;;;;;;7.10;6.50;;;5.20;73.40;;;;;;5188589;28;20465;-65
2021/03/27 09:19:44;;;;;;;6.80;6.20;;;5.30;72.50;;;;;;5191346;28;20715;-65
2021/03/27 09:22:37;;;;;;;6.95;6.32;;;5.40;72.60;;;;;;5188535;28;20081;-65
2021/03/27 09:25:53;;;;;;;8.35;6.95;;;5.50;72.30;;;;;;5189415;28;20056;-66
2021/03/27 09:28:46;;;;;;;7.20;6.50;;;5.50;70.30;;;;;;5169748;28;20132;-65
2021/03/27 09:31:46;;;;;;;7.15;6.47;;;5.50;71.30;;;;;;5190786;28;20579;-65
2021/03/27 09:34:23;;;;;;;7.65;6.90;;;5.40;69.30;;;;;;5189646;28;20050;-66
2021/03/27 09:36:58;;;;;;;7.78;6.70;;;5.50;70.00;;;;;;5188406;28;20412;-65
2021/03/27 09:39:51;;;;;;;7.28;6.57;;;5.50;68.00;;;;;;5187455;28;20126;-65
2021/03/27 09:42:42;;;;;;;7.40;6.43;;;5.60;70.20;;;;;;5184569;28;20088;-65
2021/03/27 09:45:19;;;;;;;6.70;6.00;;;5.60;70.60;;;;;;5187506;28;20411;-65
2021/03/27 09:48:21;;;;;;;7.22;6.45;;;5.50;72.10;;;;;;5186237;28;20475;-65
2021/03/27 09:51:03;;;;;;;7.00;6.30;;;5.50;71.60;;;;;;5187736;28;20721;-65
2021/03/27 09:53:45;;;;;;;7.30;6.60;;;5.50;72.30;;;;;;5187792;28;20052;-65
2021/03/27 09:56:32;;;;;;;7.13;6.43;;;5.40;72.50;;;;;;5186531;28;20500;-66
2021/03/27 09:59:17;;;;;;;6.90;6.30;;;5.30;72.40;;;;;;5188385;28;20148;-67
2021/03/27 10:02:13;;;;;;;7.13;6.20;;;5.30;72.70;;;;;;5187284;28;20577;-66
2021/03/27 10:04:50;;;;;;;6.93;6.15;;;5.20;72.80;;;;;;5188136;28;20041;-65
2021/03/27 10:07:33;;;;;;;6.85;6.25;;;5.30;72.10;;;;;;5188257;28;20053;-66
2021/03/27 10:10:39;;;;;;;6.90;6.30;;;5.40;71.40;;;;;;5188888;28;20538;-66
2021/03/27 10:13:32;;;;;;;6.72;6.13;;;5.60;72.20;;;;;;5183016;28;20119;-66
2021/03/27 10:16:19;;;;;;;7.68;6.90;;;5.60;71.70;;;;;;5188221;28;20053;-66
2021/03/27 10:19:09;;;;;;;7.18;6.47;;;5.70;72.90;;;;;;5192164;28;20099;-66
2021/03/27 10:21:49;;;;;;;7.50;6.80;;;5.80;73.90;;;;;;5189162;28;20099;-66
2021/03/27 10:24:41;;;;;;;7.95;6.53;;;5.80;73.10;;;;;;5187538;28;20494;-64
2021/03/27 10:27:32;;;;;;;6.88;6.28;;;5.90;73.70;;;;;;5184582;28;20057;-65
2021/03/27 10:30:14;;;;;;;;;;;5.70;74.50;;;;;;5186571;28;20131;-66
2021/03/27 10:33:00;;;;;;;7.45;6.78;;;5.80;72.80;;;;;;5188453;28;19925;-65
2021/03/27 10:35:50;;;;;;;7.35;6.35;;;5.80;72.60;;;;;;5188183;28;20046;-65
2021/03/27 10:38:59;;;;;;;6.70;6.10;;;5.80;72.50;;;;;;5186610;28;20557;-65
2021/03/27 10:41:39;;;;;;;7.22;5.72;;;5.80;71.40;;;;;;5185607;28;20037;-64
2021/03/27 10:44:24;;;;;;;7.30;6.40;;;5.80;71.40;;;;;;5187657;28;20069;-65
2021/03/27 10:47:23;;;;;;;6.80;6.20;;;5.80;70.80;;;;;;5184893;28;20045;-64
2021/03/27 10:50:09;;;;;;;7.22;6.53;;;5.90;71.00;;;;;;5184329;28;20095;-64
2021/03/27 10:52:50;;;;;;;7.50;6.70;;;6.00;70.80;;;;;;5185766;28;20564;-64
2021/03/27 10:55:44;;;;;;;7.05;6.45;;;6.00;70.30;;;;;;5185734;28;20534;-65
2021/03/27 10:58:18;;;;;;;7.22;6.53;;;6.10;69.80;;;;;;5186851;28;20095;-65
2021/03/27 11:01:14;;;;;;;7.20;6.60;;;6.10;70.00;;;;;;5186030;28;20038;-65
2021/03/27 11:04:10;;;;;;;7.47;6.88;;;6.10;71.20;;;;;;5187113;28;20048;-66
2021/03/27 11:07:20;;;;;;;8.00;7.30;;;6.10;72.70;;;;;;5184903;28;20049;-65
2021/03/27 11:10:17;;;;;;;7.63;6.95;;;6.10;71.80;;;;;;5184825;28;20397;-66
2021/03/27 11:13:16;;;;;;;7.60;7.00;;;6.10;71.40;;;;;;5180714;28;20585;-66
2021/03/27 11:16:22;;;;;;;10.38;9.07;;;6.00;72.20;;;;;;5190038;28;20038;-66
2021/03/27 11:19:36;;;;;;;8.57;7.78;;;6.10;72.70;;;;;;5188367;28;20107;-64
2021/03/27 11:22:19;;;;;;;7.55;6.90;;;6.00;72.60;;;;;;5140617;28;20195;-64
2021/03/27 11:25:21;;;;;;;8.20;7.40;;;6.00;72.30;;;;;;5185190;28;20046;-64
2021/03/27 11:28:18;;;;;;;7.50;6.80;;;6.10;72.40;;;;;;5186841;28;20069;-64
2021/03/27 11:35:04;;;;;;;;;;;6.10;72.20;;;;;;5187255;28;20032;-65
2021/03/27 11:37:50;;;;;;;7.40;6.80;;;6.20;71.60;;;;;;5182767;28;19929;-64
2021/03/27 11:40:27;;;;;;;7.72;7.07;;;6.20;70.80;;;;;;5186452;28;20122;-65
2021/03/27 11:43:20;;;;;;;6.95;6.32;;;6.30;70.40;;;;;;5184049;28;20139;-65
2021/03/27 11:46:02;;;;;;;7.68;6.97;;;6.30;70.50;;;;;;5182497;28;20595;-64
2021/03/27 11:48:48;;;;;;;7.28;6.60;;;6.20;70.00;;;;;;5185889;28;20652;-67
2021/03/27 11:51:45;;;;;;;8.30;6.47;;;6.30;70.00;;;;;;5186435;28;20051;-65
2021/03/27 11:54:35;;;;;;;7.53;6.82;;;6.30;69.90;;;;;;5184732;28;20128;-65
2021/03/27 11:57:31;;;;;;;7.30;6.60;;;6.30;70.30;;;;;;5187198;28;20126;-68
2021/03/27 12:03:39;;;;;;;9.05;8.07;;;6.30;70.40;;;;;;5187289;28;20100;-66
2021/03/27 12:06:36;;;;;;;7.95;6.20;;;6.40;70.80;;;;;;5183558;28;20041;-65
2021/03/27 12:09:46;;;;;;;7.72;6.95;;;6.20;70.60;;;;;;5184867;28;20069;-66
2021/03/27 12:12:18;;;;;;;;;;;6.20;69.60;;;;;;5185154;28;20100;-67
2021/03/27 12:14:54;;;;;;;7.13;6.43;;;6.20;70.10;;;;;;5182672;28;20405;-66
2021/03/27 12:17:32;;;;;;;7.50;6.78;;;6.20;70.40;;;;;;5183042;28;20526;-66
2021/03/27 12:20:26;;;;;;;7.00;6.30;;;6.20;70.50;;;;;;5183579;28;20524;-68
2021/03/27 12:23:05;;;;;;;7.85;7.15;;;6.30;70.00;;;;;;5163586;28;20058;-65
2021/03/27 12:26:11;;;;;;;7.13;6.40;;;6.40;69.70;;;;;;5171665;28;20096;-66
2021/03/27 12:28:52;;;;;;;63.88;49.72;;;6.40;69.30;;;;;;5200757;28;20695;-67
2021/03/27 12:32:00;;;;;;;13.85;12.43;;;6.50;70.10;;;;;;5185118;28;20069;-67
2021/03/27 12:34:50;;;;;;;7.75;6.97;;;6.50;69.40;;;;;;5185488;28;20445;-69
2021/03/27 12:37:37;;;;;;;7.50;6.80;;;6.50;69.80;;;;;;5184111;28;20074;-68
2021/03/27 12:40:31;;;;;;;8.57;7.80;;;6.50;70.00;;;;;;5182967;28;20096;-66
2021/03/27 12:43:15;;;;;;;34.88;21.50;;;6.50;69.80;;;;;;5181820;28;20107;-67
2021/03/27 12:45:49;;;;;;;12.38;10.30;;;6.50;70.30;;;;;;5192133;28;20050;-67
2021/03/27 12:48:56;;;;;;;11.55;9.23;;;6.50;71.30;;;;;;5185116;28;20099;-65
2021/03/27 12:52:02;;;;;;;8.35;7.55;;;6.60;70.40;;;;;;5187426;28;20131;-67
2021/03/27 12:54:40;;;;;;;8.00;7.25;;;6.60;70.60;;;;;;5185476;28;20041;-69
2021/03/27 12:57:44;;;;;;;8.13;7.43;;;6.60;70.90;;;;;;5185657;28;20046;-65
2021/03/27 13:00:43;;;;;;;8.60;7.57;;;6.60;69.80;;;;;;5183720;28;20061;-66
2021/03/27 13:03:36;;;;;;;13.90;11.20;;;6.60;69.60;;;;;;5187782;28;20073;-65
2021/03/27 13:06:22;;;;;;;8.25;7.55;;;6.60;69.90;;;;;;5182256;28;20137;-66
2021/03/27 13:09:12;;;;;;;8.10;7.30;;;6.60;70.10;;;;;;5185187;28;20070;-65
2021/03/27 13:11:54;;;;;;;8.35;7.55;;;6.60;70.70;;;;;;5188142;28;20107;-66
2021/03/27 13:14:50;;;;;;;7.75;7.05;;;6.60;71.20;;;;;;5199646;28;20062;-65
2021/03/27 13:17:38;;;;;;;8.07;7.32;;;6.50;70.10;;;;;;5183891;28;20128;-65
2021/03/27 13:20:38;;;;;;;8.30;7.60;;;6.50;69.40;;;;;;5185510;28;20064;-66
2021/03/27 13:24:05;;;;;;;7.90;7.15;;;6.50;69.60;;;;;;5184491;28;20082;-67
2021/03/27 13:26:37;;;;;;;8.07;7.25;;;6.40;69.70;;;;;;5185448;28;20037;-66
2021/03/27 13:29:34;;;;;;;8.23;7.53;;;6.50;69.50;;;;;;5182205;28;20033;-66
2021/03/27 13:32:15;;;;;;;8.50;7.70;;;6.60;68.80;;;;;;5184466;28;20076;-66
2021/03/27 13:35:15;;;;;;;8.55;7.65;;;6.60;68.20;;;;;;5189052;28;20042;-65
2021/03/27 13:38:11;;;;;;;8.60;7.43;;;6.60;68.70;;;;;;5188934;28;20053;-67
2021/03/27 13:40:45;;;;;;;7.72;6.90;;;6.60;69.30;;;;;;5187166;28;20479;-66
2021/03/27 13:43:32;;;;;;;8.00;7.30;;;6.50;67.90;;;;;;5204848;28;20033;-66
2021/03/27 13:46:48;;;;;;;8.00;7.20;;;6.50;69.60;;;;;;5184057;28;20108;-67
2021/03/27 13:49:27;;;;;;;7.72;6.93;;;6.50;70.10;;;;;;5177293;28;20080;-67
2021/03/27 13:52:13;;;;;;;8.15;7.35;;;6.50;68.80;;;;;;5188216;28;20107;-66
2021/03/27 13:55:03;;;;;;;7.80;6.97;;;6.60;69.00;;;;;;5189270;28;20049;-65
2021/03/27 13:58:00;;;;;;;9.75;7.30;;;6.50;67.90;;;;;;5187369;28;20462;-66
2021/03/27 14:00:49;;;;;;;8.48;7.68;;;6.40;67.60;;;;;;5188455;28;20064;-67
2021/03/27 14:03:29;;;;;;;8.43;7.63;;;6.40;68.10;;;;;;5187742;28;20074;-66
2021/03/27 14:06:22;;;;;;;7.90;7.20;;;6.50;68.20;;;;;;5187042;28;20042;-66
2021/03/27 14:09:18;;;;;;;8.32;7.43;;;6.50;69.00;;;;;;5186200;28;20117;-66
2021/03/27 14:11:55;;;;;;;8.77;7.97;;;6.40;67.70;;;;;;5187893;28;20120;-67
2021/03/27 14:14:42;;;;;;;8.55;7.78;;;6.50;68.50;;;;;;5187743;28;20278;-66
2021/03/27 14:17:30;;;;;;;9.18;8.05;;;6.50;68.80;;;;;;5188770;28;20153;-66
2021/03/27 14:20:28;;;;;;;8.52;7.72;;;6.50;68.30;;;;;;5186991;28;20104;-67
2021/03/27 14:23:20;;;;;;;8.70;7.80;;;6.60;68.40;;;;;;5189469;28;20570;-66
2021/03/27 14:26:10;;;;;;;9.45;8.13;;;6.70;69.30;;;;;;5188535;28;20042;-66
2021/03/27 14:28:48;;;;;;;8.95;8.15;;;6.70;71.40;;;;;;5187540;28;20046;-65
2021/03/27 14:31:51;;;;;;;9.20;8.40;;;6.60;70.00;;;;;;5187886;28;20254;-67
2021/03/27 14:34:42;;;;;;;9.23;7.80;;;6.60;68.80;;;;;;5186301;28;20533;-66
2021/03/27 14:37:39;;;;;;;9.02;8.20;;;6.50;70.20;;;;;;5188936;28;20176;-66
2021/03/27 14:40:52;;;;;;;9.50;8.38;;;6.60;68.50;;;;;;5185100;28;20136;-66
2021/03/27 14:43:32;;;;;;;9.98;8.30;;;6.60;69.70;;;;;;5153321;28;20120;-66
2021/03/27 14:46:24;;;;;;;9.85;8.73;;;6.70;67.60;;;;;;5154477;28;20105;-65
2021/03/27 14:49:18;;;;;;;9.18;8.38;;;6.80;68.30;;;;;;5177934;28;20064;-65
2021/03/27 14:52:08;;;;;;;9.40;8.15;;;6.80;66.60;;;;;;5186289;28;20077;-67
2021/03/27 14:55:03;;;;;;;9.80;8.40;;;6.90;67.60;;;;;;5185271;28;20688;-66
2021/03/27 14:57:56;;;;;;;8.85;8.05;;;7.00;69.20;;;;;;5175779;28;20069;-65
2021/03/27 15:00:40;;;;;;;9.10;8.20;;;7.10;69.60;;;;;;5188033;28;20068;-66
2021/03/27 15:03:37;;;;;;;9.05;8.10;;;7.20;68.90;;;;;;5189912;28;20048;-68
2021/03/27 15:06:39;;;;;;;8.60;7.78;;;7.20;68.40;;;;;;5186834;28;20716;-65